sensor_id;sensor_type;location;lat;lon;timestamp;P1;durP1;ratioP1;P2;durP2;ratioP2
36443;SDS011;24692;45.642;13.806;2023-09-19T00:01:32;27.80;;;8.40;;
36443;SDS011;24692;45.642;13.806;2023-09-19T00:03:59;19.20;;;8.23;;
36443;SDS011;24692;45.642;13.806;2023-09-19T00:06:28;17.45;;;9.75;;
36443;SDS011;24692;45.642;13.806;2023-09-19T00:08:56;24.83;;;8.25;;
36443;SDS011;24692;45.642;13.806;2023-09-19T00:11:24;25.40;;;8.63;;
36443;SDS011;24692;45.642;13.806;2023-09-19T00:13:51;20.30;;;9.10;;
36443;SDS011;24692;45.642;13.806;2023-09-19T00:16:17;15.90;;;8.95;;
36443;SDS011;24692;45.642;13.806;2023-09-19T00:18:44;19.45;;;9.20;;
36443;SDS011;24692;45.642;13.806;2023-09-19T00:21:10;20.75;;;9.60;;
36443;SDS011;24692;45.642;13.806;2023-09-19T00:23:36;24.58;;;9.23;;
36443;SDS011;24692;45.642;13.806;2023-09-19T00:26:01;20.80;;;9.18;;
36443;SDS011;24692;45.642;13.806;2023-09-19T00:28:28;18.42;;;9.25;;
36443;SDS011;24692;45.642;13.806;2023-09-19T00:30:55;22.95;;;9.57;;
36443;SDS011;24692;45.642;13.806;2023-09-19T00:33:21;22.75;;;9.32;;
36443;SDS011;24692;45.642;13.806;2023-09-19T00:35:47;23.38;;;9.23;;
36443;SDS011;24692;45.642;13.806;2023-09-19T00:38:16;22.15;;;8.30;;
36443;SDS011;24692;45.642;13.806;2023-09-19T00:40:46;21.98;;;9.90;;
36443;SDS011;24692;45.642;13.806;2023-09-19T00:43:12;20.65;;;9.25;;
36443;SDS011;24692;45.642;13.806;2023-09-19T00:45:38;23.33;;;9.65;;
36443;SDS011;24692;45.642;13.806;2023-09-19T00:48:07;18.88;;;9.35;;
36443;SDS011;24692;45.642;13.806;2023-09-19T00:50:34;19.88;;;9.45;;
36443;SDS011;24692;45.642;13.806;2023-09-19T00:53:01;20.60;;;9.43;;
36443;SDS011;24692;45.642;13.806;2023-09-19T00:55:32;21.70;;;8.93;;
36443;SDS011;24692;45.642;13.806;2023-09-19T00:57:59;23.10;;;8.10;;
36443;SDS011;24692;45.642;13.806;2023-09-19T01:00:26;22.63;;;8.02;;
36443;SDS011;24692;45.642;13.806;2023-09-19T01:02:52;22.83;;;8.20;;
36443;SDS011;24692;45.642;13.806;2023-09-19T01:05:17;19.77;;;8.63;;
36443;SDS011;24692;45.642;13.806;2023-09-19T01:07:43;24.67;;;8.57;;
36443;SDS011;24692;45.642;13.806;2023-09-19T01:10:13;28.42;;;8.98;;
36443;SDS011;24692;45.642;13.806;2023-09-19T01:16:03;32.92;;;9.07;;
36443;SDS011;24692;45.642;13.806;2023-09-19T01:18:47;24.20;;;8.25;;
36443;SDS011;24692;45.642;13.806;2023-09-19T01:27:11;25.48;;;8.90;;
36443;SDS011;24692;45.642;13.806;2023-09-19T01:29:46;23.92;;;8.15;;
36443;SDS011;24692;45.642;13.806;2023-09-19T01:32:13;28.15;;;9.02;;
36443;SDS011;24692;45.642;13.806;2023-09-19T01:34:56;30.45;;;8.95;;
36443;SDS011;24692;45.642;13.806;2023-09-19T01:37:28;24.08;;;9.20;;
36443;SDS011;24692;45.642;13.806;2023-09-19T01:39:57;28.17;;;8.40;;
36443;SDS011;24692;45.642;13.806;2023-09-19T01:45:13;26.33;;;8.95;;
36443;SDS011;24692;45.642;13.806;2023-09-19T01:47:49;25.58;;;8.57;;
36443;SDS011;24692;45.642;13.806;2023-09-19T01:53:02;36.38;;;8.93;;
36443;SDS011;24692;45.642;13.806;2023-09-19T01:55:36;36.97;;;10.13;;
36443;SDS011;24692;45.642;13.806;2023-09-19T02:00:40;38.50;;;9.90;;
36443;SDS011;24692;45.642;13.806;2023-09-19T02:03:08;33.70;;;8.73;;
36443;SDS011;24692;45.642;13.806;2023-09-19T02:05:35;28.40;;;9.07;;
36443;SDS011;24692;45.642;13.806;2023-09-19T02:08:00;29.67;;;7.95;;
36443;SDS011;24692;45.642;13.806;2023-09-19T02:10:26;25.33;;;7.78;;
36443;SDS011;24692;45.642;13.806;2023-09-19T02:12:52;27.95;;;8.57;;
36443;SDS011;24692;45.642;13.806;2023-09-19T02:15:18;28.63;;;9.35;;
36443;SDS011;24692;45.642;13.806;2023-09-19T02:17:43;29.38;;;9.15;;
36443;SDS011;24692;45.642;13.806;2023-09-19T02:20:11;36.97;;;9.10;;
36443;SDS011;24692;45.642;13.806;2023-09-19T02:22:40;30.05;;;9.07;;
36443;SDS011;24692;45.642;13.806;2023-09-19T02:25:07;34.33;;;8.35;;
36443;SDS011;24692;45.642;13.806;2023-09-19T02:27:33;28.52;;;8.85;;
36443;SDS011;24692;45.642;13.806;2023-09-19T02:29:59;30.08;;;8.80;;
36443;SDS011;24692;45.642;13.806;2023-09-19T02:32:29;37.17;;;8.98;;
36443;SDS011;24692;45.642;13.806;2023-09-19T02:34:56;31.30;;;8.75;;
36443;SDS011;24692;45.642;13.806;2023-09-19T02:37:25;29.58;;;8.77;;
36443;SDS011;24692;45.642;13.806;2023-09-19T02:39:51;35.58;;;9.15;;
36443;SDS011;24692;45.642;13.806;2023-09-19T02:42:17;33.17;;;8.57;;
36443;SDS011;24692;45.642;13.806;2023-09-19T02:44:42;32.28;;;8.57;;
36443;SDS011;24692;45.642;13.806;2023-09-19T02:47:08;24.15;;;8.90;;
36443;SDS011;24692;45.642;13.806;2023-09-19T02:49:34;25.85;;;8.38;;
36443;SDS011;24692;45.642;13.806;2023-09-19T02:52:00;27.25;;;9.52;;
36443;SDS011;24692;45.642;13.806;2023-09-19T02:54:26;26.50;;;8.38;;
36443;SDS011;24692;45.642;13.806;2023-09-19T02:56:51;29.05;;;8.38;;
36443;SDS011;24692;45.642;13.806;2023-09-19T02:59:18;38.20;;;9.13;;
36443;SDS011;24692;45.642;13.806;2023-09-19T03:01:44;29.95;;;8.70;;
36443;SDS011;24692;45.642;13.806;2023-09-19T03:04:13;32.50;;;9.20;;
36443;SDS011;24692;45.642;13.806;2023-09-19T03:06:44;37.60;;;9.57;;
36443;SDS011;24692;45.642;13.806;2023-09-19T03:09:10;31.52;;;9.05;;
36443;SDS011;24692;45.642;13.806;2023-09-19T03:11:39;31.50;;;8.63;;
36443;SDS011;24692;45.642;13.806;2023-09-19T03:14:05;33.90;;;9.18;;
36443;SDS011;24692;45.642;13.806;2023-09-19T03:16:31;24.63;;;9.10;;
36443;SDS011;24692;45.642;13.806;2023-09-19T03:18:58;27.15;;;7.90;;
36443;SDS011;24692;45.642;13.806;2023-09-19T03:21:24;32.25;;;9.45;;
36443;SDS011;24692;45.642;13.806;2023-09-19T03:23:50;23.30;;;9.07;;
36443;SDS011;24692;45.642;13.806;2023-09-19T03:26:16;30.67;;;9.05;;
36443;SDS011;24692;45.642;13.806;2023-09-19T03:28:42;21.50;;;8.15;;
36443;SDS011;24692;45.642;13.806;2023-09-19T03:31:08;23.35;;;9.05;;
36443;SDS011;24692;45.642;13.806;2023-09-19T03:33:34;25.17;;;8.52;;
36443;SDS011;24692;45.642;13.806;2023-09-19T03:36:00;28.63;;;8.10;;
36443;SDS011;24692;45.642;13.806;2023-09-19T03:38:30;32.50;;;8.55;;
36443;SDS011;24692;45.642;13.806;2023-09-19T03:40:56;29.15;;;8.07;;
36443;SDS011;24692;45.642;13.806;2023-09-19T03:43:22;31.88;;;8.25;;
36443;SDS011;24692;45.642;13.806;2023-09-19T03:45:48;35.10;;;8.70;;
36443;SDS011;24692;45.642;13.806;2023-09-19T03:48:14;26.00;;;8.27;;
36443;SDS011;24692;45.642;13.806;2023-09-19T03:50:39;20.70;;;7.72;;
36443;SDS011;24692;45.642;13.806;2023-09-19T03:53:05;23.48;;;8.02;;
36443;SDS011;24692;45.642;13.806;2023-09-19T03:55:34;24.48;;;7.90;;
36443;SDS011;24692;45.642;13.806;2023-09-19T03:58:04;34.03;;;9.68;;
36443;SDS011;24692;45.642;13.806;2023-09-19T04:00:29;29.95;;;9.07;;
36443;SDS011;24692;45.642;13.806;2023-09-19T04:02:55;27.65;;;8.40;;
36443;SDS011;24692;45.642;13.806;2023-09-19T04:05:22;26.05;;;8.77;;
36443;SDS011;24692;45.642;13.806;2023-09-19T04:07:48;28.13;;;8.88;;
36443;SDS011;24692;45.642;13.806;2023-09-19T04:10:15;34.38;;;9.00;;
36443;SDS011;24692;45.642;13.806;2023-09-19T04:12:41;26.02;;;8.68;;
36443;SDS011;24692;45.642;13.806;2023-09-19T04:15:18;24.35;;;9.30;;
36443;SDS011;24692;45.642;13.806;2023-09-19T04:17:44;26.35;;;8.60;;
36443;SDS011;24692;45.642;13.806;2023-09-19T04:20:10;20.08;;;8.18;;
36443;SDS011;24692;45.642;13.806;2023-09-19T04:22:37;23.42;;;9.07;;
36443;SDS011;24692;45.642;13.806;2023-09-19T04:25:04;27.83;;;9.73;;
36443;SDS011;24692;45.642;13.806;2023-09-19T04:27:32;25.45;;;9.55;;
36443;SDS011;24692;45.642;13.806;2023-09-19T04:29:57;27.45;;;8.18;;
36443;SDS011;24692;45.642;13.806;2023-09-19T04:32:24;28.60;;;8.13;;
36443;SDS011;24692;45.642;13.806;2023-09-19T04:34:53;21.13;;;8.85;;
36443;SDS011;24692;45.642;13.806;2023-09-19T04:37:19;28.05;;;8.05;;
36443;SDS011;24692;45.642;13.806;2023-09-19T04:39:44;27.00;;;8.48;;
36443;SDS011;24692;45.642;13.806;2023-09-19T04:42:12;30.98;;;9.00;;
36443;SDS011;24692;45.642;13.806;2023-09-19T04:44:39;28.80;;;9.15;;
36443;SDS011;24692;45.642;13.806;2023-09-19T04:47:05;27.73;;;8.18;;
36443;SDS011;24692;45.642;13.806;2023-09-19T04:49:31;21.00;;;8.63;;
36443;SDS011;24692;45.642;13.806;2023-09-19T04:51:56;24.60;;;9.27;;
36443;SDS011;24692;45.642;13.806;2023-09-19T04:54:22;29.33;;;8.73;;
36443;SDS011;24692;45.642;13.806;2023-09-19T04:56:48;29.75;;;9.15;;
36443;SDS011;24692;45.642;13.806;2023-09-19T04:59:13;23.52;;;8.18;;
36443;SDS011;24692;45.642;13.806;2023-09-19T05:01:40;26.48;;;8.52;;
36443;SDS011;24692;45.642;13.806;2023-09-19T05:04:06;28.25;;;8.85;;
36443;SDS011;24692;45.642;13.806;2023-09-19T05:06:31;25.00;;;8.00;;
36443;SDS011;24692;45.642;13.806;2023-09-19T05:08:58;32.53;;;8.57;;
36443;SDS011;24692;45.642;13.806;2023-09-19T05:11:25;29.45;;;8.90;;
36443;SDS011;24692;45.642;13.806;2023-09-19T05:13:51;25.75;;;8.35;;
36443;SDS011;24692;45.642;13.806;2023-09-19T05:16:18;27.85;;;8.30;;
36443;SDS011;24692;45.642;13.806;2023-09-19T05:18:44;23.27;;;8.43;;
36443;SDS011;24692;45.642;13.806;2023-09-19T05:21:09;23.65;;;7.72;;
36443;SDS011;24692;45.642;13.806;2023-09-19T05:23:36;24.27;;;7.55;;
36443;SDS011;24692;45.642;13.806;2023-09-19T05:26:02;27.60;;;7.93;;
36443;SDS011;24692;45.642;13.806;2023-09-19T05:28:29;29.08;;;10.00;;
36443;SDS011;24692;45.642;13.806;2023-09-19T05:30:55;33.83;;;11.05;;
36443;SDS011;24692;45.642;13.806;2023-09-19T05:33:21;35.80;;;10.75;;
36443;SDS011;24692;45.642;13.806;2023-09-19T05:35:49;25.40;;;7.80;;
36443;SDS011;24692;45.642;13.806;2023-09-19T05:38:15;30.15;;;8.63;;
36443;SDS011;24692;45.642;13.806;2023-09-19T05:40:44;27.85;;;8.25;;
36443;SDS011;24692;45.642;13.806;2023-09-19T05:43:11;28.52;;;8.57;;
36443;SDS011;24692;45.642;13.806;2023-09-19T05:45:39;31.98;;;8.40;;
36443;SDS011;24692;45.642;13.806;2023-09-19T05:48:09;27.98;;;8.00;;
36443;SDS011;24692;45.642;13.806;2023-09-19T05:50:38;22.00;;;7.28;;
36443;SDS011;24692;45.642;13.806;2023-09-19T05:53:04;26.27;;;8.00;;
36443;SDS011;24692;45.642;13.806;2023-09-19T05:55:31;25.83;;;8.07;;
36443;SDS011;24692;45.642;13.806;2023-09-19T05:57:57;27.63;;;8.38;;
36443;SDS011;24692;45.642;13.806;2023-09-19T06:00:23;25.60;;;7.80;;
36443;SDS011;24692;45.642;13.806;2023-09-19T06:02:53;25.05;;;7.78;;
36443;SDS011;24692;45.642;13.806;2023-09-19T06:05:21;24.27;;;7.68;;
36443;SDS011;24692;45.642;13.806;2023-09-19T06:07:47;31.55;;;8.35;;
36443;SDS011;24692;45.642;13.806;2023-09-19T06:10:13;28.48;;;7.93;;
36443;SDS011;24692;45.642;13.806;2023-09-19T06:12:40;27.95;;;8.05;;
36443;SDS011;24692;45.642;13.806;2023-09-19T06:15:09;29.40;;;8.27;;
36443;SDS011;24692;45.642;13.806;2023-09-19T06:17:37;24.92;;;7.30;;
36443;SDS011;24692;45.642;13.806;2023-09-19T06:20:06;35.60;;;8.88;;
36443;SDS011;24692;45.642;13.806;2023-09-19T06:22:39;26.08;;;8.45;;
36443;SDS011;24692;45.642;13.806;2023-09-19T06:25:06;26.75;;;8.02;;
36443;SDS011;24692;45.642;13.806;2023-09-19T06:27:33;28.42;;;7.88;;
36443;SDS011;24692;45.642;13.806;2023-09-19T06:30:01;28.65;;;8.45;;
36443;SDS011;24692;45.642;13.806;2023-09-19T06:32:27;35.28;;;8.27;;
36443;SDS011;24692;45.642;13.806;2023-09-19T06:34:53;30.25;;;8.20;;
36443;SDS011;24692;45.642;13.806;2023-09-19T06:37:20;24.80;;;7.72;;
36443;SDS011;24692;45.642;13.806;2023-09-19T06:39:46;26.83;;;7.85;;
36443;SDS011;24692;45.642;13.806;2023-09-19T06:42:14;19.05;;;7.15;;
36443;SDS011;24692;45.642;13.806;2023-09-19T06:44:42;23.92;;;7.22;;
36443;SDS011;24692;45.642;13.806;2023-09-19T06:47:08;26.05;;;7.93;;
36443;SDS011;24692;45.642;13.806;2023-09-19T06:49:35;29.88;;;7.63;;
36443;SDS011;24692;45.642;13.806;2023-09-19T06:52:01;30.30;;;6.88;;
36443;SDS011;24692;45.642;13.806;2023-09-19T06:54:27;26.50;;;7.97;;
36443;SDS011;24692;45.642;13.806;2023-09-19T06:56:56;28.35;;;7.25;;
36443;SDS011;24692;45.642;13.806;2023-09-19T06:59:25;29.98;;;7.05;;
36443;SDS011;24692;45.642;13.806;2023-09-19T07:01:51;28.00;;;7.03;;
36443;SDS011;24692;45.642;13.806;2023-09-19T07:04:17;27.55;;;6.97;;
36443;SDS011;24692;45.642;13.806;2023-09-19T07:06:44;30.58;;;6.65;;
36443;SDS011;24692;45.642;13.806;2023-09-19T07:09:16;21.98;;;5.95;;
36443;SDS011;24692;45.642;13.806;2023-09-19T07:11:44;20.25;;;5.90;;
36443;SDS011;24692;45.642;13.806;2023-09-19T07:14:11;24.70;;;6.60;;
36443;SDS011;24692;45.642;13.806;2023-09-19T07:16:37;26.88;;;6.13;;
36443;SDS011;24692;45.642;13.806;2023-09-19T07:19:04;24.98;;;5.85;;
36443;SDS011;24692;45.642;13.806;2023-09-19T07:21:30;28.00;;;6.30;;
36443;SDS011;24692;45.642;13.806;2023-09-19T07:23:59;20.60;;;5.80;;
36443;SDS011;24692;45.642;13.806;2023-09-19T07:26:26;25.92;;;5.90;;
36443;SDS011;24692;45.642;13.806;2023-09-19T07:28:53;24.67;;;5.75;;
36443;SDS011;24692;45.642;13.806;2023-09-19T07:31:19;22.92;;;5.43;;
36443;SDS011;24692;45.642;13.806;2023-09-19T07:33:45;24.23;;;5.75;;
36443;SDS011;24692;45.642;13.806;2023-09-19T07:36:11;20.95;;;5.32;;
36443;SDS011;24692;45.642;13.806;2023-09-19T07:38:38;25.88;;;5.78;;
36443;SDS011;24692;45.642;13.806;2023-09-19T07:41:05;20.25;;;5.35;;
36443;SDS011;24692;45.642;13.806;2023-09-19T07:43:31;23.08;;;5.70;;
36443;SDS011;24692;45.642;13.806;2023-09-19T07:46:02;21.83;;;5.97;;
36443;SDS011;24692;45.642;13.806;2023-09-19T07:48:29;21.52;;;5.60;;
36443;SDS011;24692;45.642;13.806;2023-09-19T07:50:54;22.83;;;5.28;;
36443;SDS011;24692;45.642;13.806;2023-09-19T07:53:20;25.27;;;5.90;;
36443;SDS011;24692;45.642;13.806;2023-09-19T07:55:47;31.33;;;5.80;;
36443;SDS011;24692;45.642;13.806;2023-09-19T07:58:13;27.08;;;5.95;;
36443;SDS011;24692;45.642;13.806;2023-09-19T08:00:40;19.25;;;5.38;;
36443;SDS011;24692;45.642;13.806;2023-09-19T08:03:06;28.27;;;5.88;;
36443;SDS011;24692;45.642;13.806;2023-09-19T08:05:34;21.55;;;6.20;;
36443;SDS011;24692;45.642;13.806;2023-09-19T08:07:59;22.35;;;5.55;;
36443;SDS011;24692;45.642;13.806;2023-09-19T08:10:27;21.33;;;5.63;;
36443;SDS011;24692;45.642;13.806;2023-09-19T08:13:00;22.50;;;5.32;;
36443;SDS011;24692;45.642;13.806;2023-09-19T08:15:27;20.13;;;4.90;;
36443;SDS011;24692;45.642;13.806;2023-09-19T08:17:53;20.85;;;4.93;;
36443;SDS011;24692;45.642;13.806;2023-09-19T08:20:18;26.63;;;5.80;;
36443;SDS011;24692;45.642;13.806;2023-09-19T08:22:48;26.38;;;5.50;;
36443;SDS011;24692;45.642;13.806;2023-09-19T08:25:19;23.52;;;5.70;;
36443;SDS011;24692;45.642;13.806;2023-09-19T08:27:48;24.13;;;5.75;;
36443;SDS011;24692;45.642;13.806;2023-09-19T08:30:18;17.27;;;5.13;;
36443;SDS011;24692;45.642;13.806;2023-09-19T08:32:49;20.33;;;5.32;;
36443;SDS011;24692;45.642;13.806;2023-09-19T08:35:15;16.77;;;4.88;;
36443;SDS011;24692;45.642;13.806;2023-09-19T08:37:42;25.25;;;5.50;;
36443;SDS011;24692;45.642;13.806;2023-09-19T08:40:10;21.08;;;4.93;;
36443;SDS011;24692;45.642;13.806;2023-09-19T08:42:50;21.80;;;4.82;;
36443;SDS011;24692;45.642;13.806;2023-09-19T08:45:18;15.05;;;4.40;;
36443;SDS011;24692;45.642;13.806;2023-09-19T08:53:50;14.48;;;4.65;;
36443;SDS011;24692;45.642;13.806;2023-09-19T08:56:18;12.98;;;4.22;;
36443;SDS011;24692;45.642;13.806;2023-09-19T08:58:48;22.60;;;5.18;;
36443;SDS011;24692;45.642;13.806;2023-09-19T09:01:19;20.23;;;5.15;;
36443;SDS011;24692;45.642;13.806;2023-09-19T09:03:55;19.48;;;5.35;;
36443;SDS011;24692;45.642;13.806;2023-09-19T09:06:23;20.70;;;5.35;;
36443;SDS011;24692;45.642;13.806;2023-09-19T09:08:50;18.60;;;4.90;;
36443;SDS011;24692;45.642;13.806;2023-09-19T09:11:17;24.38;;;5.45;;
36443;SDS011;24692;45.642;13.806;2023-09-19T09:13:44;21.38;;;5.32;;
36443;SDS011;24692;45.642;13.806;2023-09-19T09:16:11;22.58;;;5.78;;
36443;SDS011;24692;45.642;13.806;2023-09-19T09:18:38;17.20;;;5.70;;
36443;SDS011;24692;45.642;13.806;2023-09-19T09:21:04;19.38;;;5.38;;
36443;SDS011;24692;45.642;13.806;2023-09-19T09:23:30;18.08;;;5.35;;
36443;SDS011;24692;45.642;13.806;2023-09-19T09:25:57;20.33;;;5.13;;
36443;SDS011;24692;45.642;13.806;2023-09-19T09:28:27;18.73;;;5.22;;
36443;SDS011;24692;45.642;13.806;2023-09-19T09:30:55;23.48;;;5.43;;
36443;SDS011;24692;45.642;13.806;2023-09-19T09:33:23;18.73;;;5.13;;
36443;SDS011;24692;45.642;13.806;2023-09-19T09:35:53;21.50;;;4.93;;
36443;SDS011;24692;45.642;13.806;2023-09-19T09:41:11;16.52;;;4.97;;
36443;SDS011;24692;45.642;13.806;2023-09-19T09:43:40;22.67;;;5.13;;
36443;SDS011;24692;45.642;13.806;2023-09-19T09:46:12;16.80;;;4.68;;
36443;SDS011;24692;45.642;13.806;2023-09-19T09:51:33;20.60;;;5.22;;
36443;SDS011;24692;45.642;13.806;2023-09-19T10:02:11;8.10;;;2.47;;
36443;SDS011;24692;45.642;13.806;2023-09-19T10:04:38;6.53;;;2.72;;
36443;SDS011;24692;45.642;13.806;2023-09-19T10:07:26;10.45;;;2.70;;
36443;SDS011;24692;45.642;13.806;2023-09-19T10:10:33;4.32;;;2.00;;
36443;SDS011;24692;45.642;13.806;2023-09-19T10:13:06;5.13;;;2.40;;
36443;SDS011;24692;45.642;13.806;2023-09-19T10:15:37;4.88;;;2.20;;
36443;SDS011;24692;45.642;13.806;2023-09-19T10:18:07;6.25;;;2.45;;
36443;SDS011;24692;45.642;13.806;2023-09-19T10:20:36;6.72;;;2.25;;
36443;SDS011;24692;45.642;13.806;2023-09-19T10:23:05;6.10;;;2.75;;
36443;SDS011;24692;45.642;13.806;2023-09-19T10:25:45;4.55;;;2.22;;
36443;SDS011;24692;45.642;13.806;2023-09-19T10:28:13;8.75;;;1.85;;
36443;SDS011;24692;45.642;13.806;2023-09-19T10:30:43;4.93;;;1.77;;
36443;SDS011;24692;45.642;13.806;2023-09-19T10:33:13;3.05;;;1.63;;
36443;SDS011;24692;45.642;13.806;2023-09-19T10:35:49;5.65;;;1.83;;
36443;SDS011;24692;45.642;13.806;2023-09-19T10:38:23;4.47;;;1.85;;
36443;SDS011;24692;45.642;13.806;2023-09-19T10:40:55;4.78;;;1.70;;
36443;SDS011;24692;45.642;13.806;2023-09-19T10:43:32;4.95;;;1.50;;
36443;SDS011;24692;45.642;13.806;2023-09-19T10:46:00;3.72;;;1.80;;
36443;SDS011;24692;45.642;13.806;2023-09-19T10:48:31;3.92;;;1.90;;
36443;SDS011;24692;45.642;13.806;2023-09-19T10:53:49;6.65;;;2.13;;
36443;SDS011;24692;45.642;13.806;2023-09-19T10:56:33;3.83;;;1.98;;
36443;SDS011;24692;45.642;13.806;2023-09-19T11:01:52;3.70;;;1.70;;
36443;SDS011;24692;45.642;13.806;2023-09-19T11:12:11;5.03;;;1.73;;
36443;SDS011;24692;45.642;13.806;2023-09-19T11:15:00;5.60;;;1.92;;
36443;SDS011;24692;45.642;13.806;2023-09-19T11:28:29;2.13;;;1.40;;
36443;SDS011;24692;45.642;13.806;2023-09-19T11:30:48;2.95;;;1.48;;
36443;SDS011;24692;45.642;13.806;2023-09-19T11:33:15;3.42;;;1.75;;
36443;SDS011;24692;45.642;13.806;2023-09-19T11:46:31;3.65;;;1.60;;
36443;SDS011;24692;45.642;13.806;2023-09-19T11:49:05;4.00;;;1.63;;
36443;SDS011;24692;45.642;13.806;2023-09-19T11:51:45;5.93;;;1.90;;
36443;SDS011;24692;45.642;13.806;2023-09-19T11:54:12;4.47;;;1.90;;
36443;SDS011;24692;45.642;13.806;2023-09-19T11:56:50;5.55;;;1.70;;
36443;SDS011;24692;45.642;13.806;2023-09-19T11:59:22;3.45;;;1.58;;
36443;SDS011;24692;45.642;13.806;2023-09-19T12:01:53;3.40;;;1.40;;
36443;SDS011;24692;45.642;13.806;2023-09-19T12:04:43;5.13;;;1.40;;
36443;SDS011;24692;45.642;13.806;2023-09-19T12:09:50;2.75;;;1.30;;
36443;SDS011;24692;45.642;13.806;2023-09-19T12:12:30;2.90;;;1.25;;
36443;SDS011;24692;45.642;13.806;2023-09-19T12:14:58;6.65;;;1.50;;
36443;SDS011;24692;45.642;13.806;2023-09-19T12:17:46;3.53;;;1.33;;
36443;SDS011;24692;45.642;13.806;2023-09-19T12:20:13;3.95;;;1.50;;
36443;SDS011;24692;45.642;13.806;2023-09-19T12:22:42;1.83;;;1.35;;
36443;SDS011;24692;45.642;13.806;2023-09-19T12:25:09;2.50;;;1.35;;
36443;SDS011;24692;45.642;13.806;2023-09-19T12:27:46;8.90;;;1.75;;
36443;SDS011;24692;45.642;13.806;2023-09-19T12:30:16;3.92;;;1.52;;
36443;SDS011;24692;45.642;13.806;2023-09-19T12:32:44;3.55;;;1.30;;
36443;SDS011;24692;45.642;13.806;2023-09-19T12:35:26;3.50;;;1.38;;
36443;SDS011;24692;45.642;13.806;2023-09-19T12:37:53;2.53;;;1.10;;
36443;SDS011;24692;45.642;13.806;2023-09-19T12:40:20;3.45;;;1.20;;
36443;SDS011;24692;45.642;13.806;2023-09-19T12:42:48;2.50;;;1.20;;
36443;SDS011;24692;45.642;13.806;2023-09-19T12:45:15;5.93;;;1.52;;
36443;SDS011;24692;45.642;13.806;2023-09-19T12:53:32;5.63;;;2.17;;
36443;SDS011;24692;45.642;13.806;2023-09-19T12:56:02;5.05;;;2.00;;
36443;SDS011;24692;45.642;13.806;2023-09-19T12:58:33;6.60;;;2.30;;
36443;SDS011;24692;45.642;13.806;2023-09-19T13:01:13;5.05;;;1.90;;
36443;SDS011;24692;45.642;13.806;2023-09-19T13:03:39;6.32;;;2.50;;
36443;SDS011;24692;45.642;13.806;2023-09-19T13:06:05;4.90;;;2.40;;
36443;SDS011;24692;45.642;13.806;2023-09-19T13:11:02;5.20;;;2.10;;
36443;SDS011;24692;45.642;13.806;2023-09-19T13:16:10;7.13;;;3.03;;
36443;SDS011;24692;45.642;13.806;2023-09-19T13:18:47;10.57;;;3.13;;
36443;SDS011;24692;45.642;13.806;2023-09-19T13:21:16;8.57;;;2.97;;
36443;SDS011;24692;45.642;13.806;2023-09-19T13:23:52;8.10;;;2.90;;
36443;SDS011;24692;45.642;13.806;2023-09-19T13:26:23;8.57;;;2.67;;
36443;SDS011;24692;45.642;13.806;2023-09-19T13:28:53;7.38;;;2.85;;
36443;SDS011;24692;45.642;13.806;2023-09-19T13:31:19;8.85;;;3.05;;
36443;SDS011;24692;45.642;13.806;2023-09-19T13:33:47;11.15;;;3.15;;
36443;SDS011;24692;45.642;13.806;2023-09-19T13:36:13;8.43;;;2.65;;
36443;SDS011;24692;45.642;13.806;2023-09-19T13:38:42;12.15;;;3.08;;
36443;SDS011;24692;45.642;13.806;2023-09-19T13:41:11;8.60;;;3.28;;
36443;SDS011;24692;45.642;13.806;2023-09-19T13:43:37;9.07;;;3.05;;
36443;SDS011;24692;45.642;13.806;2023-09-19T13:46:03;7.63;;;2.90;;
36443;SDS011;24692;45.642;13.806;2023-09-19T13:48:30;8.02;;;3.05;;
36443;SDS011;24692;45.642;13.806;2023-09-19T13:50:56;13.98;;;3.30;;
36443;SDS011;24692;45.642;13.806;2023-09-19T13:53:22;9.77;;;3.15;;
36443;SDS011;24692;45.642;13.806;2023-09-19T13:55:48;12.85;;;3.20;;
36443;SDS011;24692;45.642;13.806;2023-09-19T13:58:14;11.68;;;3.40;;
36443;SDS011;24692;45.642;13.806;2023-09-19T14:00:40;11.68;;;3.72;;
36443;SDS011;24692;45.642;13.806;2023-09-19T14:03:06;12.77;;;3.47;;
36443;SDS011;24692;45.642;13.806;2023-09-19T14:05:32;11.88;;;3.40;;
36443;SDS011;24692;45.642;13.806;2023-09-19T14:07:58;14.68;;;3.42;;
36443;SDS011;24692;45.642;13.806;2023-09-19T14:10:24;10.80;;;3.70;;
36443;SDS011;24692;45.642;13.806;2023-09-19T14:12:52;8.63;;;3.47;;
36443;SDS011;24692;45.642;13.806;2023-09-19T14:15:18;15.15;;;4.15;;
36443;SDS011;24692;45.642;13.806;2023-09-19T14:17:44;11.15;;;3.80;;
36443;SDS011;24692;45.642;13.806;2023-09-19T14:20:12;12.48;;;3.63;;
36443;SDS011;24692;45.642;13.806;2023-09-19T14:22:39;11.73;;;3.72;;
36443;SDS011;24692;45.642;13.806;2023-09-19T14:25:05;12.45;;;3.65;;
36443;SDS011;24692;45.642;13.806;2023-09-19T14:27:31;10.73;;;3.40;;
36443;SDS011;24692;45.642;13.806;2023-09-19T14:29:56;12.35;;;4.13;;
36443;SDS011;24692;45.642;13.806;2023-09-19T14:32:22;11.98;;;3.50;;
36443;SDS011;24692;45.642;13.806;2023-09-19T14:34:48;14.48;;;4.10;;
36443;SDS011;24692;45.642;13.806;2023-09-19T14:37:14;11.93;;;3.45;;
36443;SDS011;24692;45.642;13.806;2023-09-19T14:39:41;13.43;;;3.80;;
36443;SDS011;24692;45.642;13.806;2023-09-19T14:42:10;10.45;;;3.67;;
36443;SDS011;24692;45.642;13.806;2023-09-19T14:44:36;13.00;;;3.70;;
36443;SDS011;24692;45.642;13.806;2023-09-19T14:47:05;9.75;;;3.55;;
36443;SDS011;24692;45.642;13.806;2023-09-19T14:49:35;13.73;;;3.70;;
36443;SDS011;24692;45.642;13.806;2023-09-19T14:52:04;10.32;;;3.53;;
36443;SDS011;24692;45.642;13.806;2023-09-19T14:54:32;10.20;;;3.45;;
36443;SDS011;24692;45.642;13.806;2023-09-19T14:56:58;9.75;;;3.55;;
36443;SDS011;24692;45.642;13.806;2023-09-19T14:59:33;13.45;;;3.72;;
36443;SDS011;24692;45.642;13.806;2023-09-19T15:02:02;9.80;;;3.63;;
36443;SDS011;24692;45.642;13.806;2023-09-19T15:04:31;9.75;;;3.20;;
36443;SDS011;24692;45.642;13.806;2023-09-19T15:06:58;9.90;;;3.42;;
36443;SDS011;24692;45.642;13.806;2023-09-19T15:09:25;9.23;;;3.15;;
36443;SDS011;24692;45.642;13.806;2023-09-19T15:11:54;8.20;;;2.70;;
36443;SDS011;24692;45.642;13.806;2023-09-19T15:14:20;10.63;;;3.38;;
36443;SDS011;24692;45.642;13.806;2023-09-19T15:16:47;8.38;;;2.30;;
36443;SDS011;24692;45.642;13.806;2023-09-19T15:19:13;5.75;;;1.80;;
36443;SDS011;24692;45.642;13.806;2023-09-19T15:21:40;3.92;;;2.10;;
36443;SDS011;24692;45.642;13.806;2023-09-19T15:24:06;2.50;;;1.48;;
36443;SDS011;24692;45.642;13.806;2023-09-19T15:26:35;3.80;;;1.80;;
36443;SDS011;24692;45.642;13.806;2023-09-19T15:29:04;3.53;;;1.88;;
36443;SDS011;24692;45.642;13.806;2023-09-19T15:31:34;6.25;;;1.83;;
36443;SDS011;24692;45.642;13.806;2023-09-19T15:34:03;5.15;;;1.70;;
36443;SDS011;24692;45.642;13.806;2023-09-19T15:36:30;4.00;;;1.70;;
36443;SDS011;24692;45.642;13.806;2023-09-19T15:39:03;2.90;;;1.77;;
36443;SDS011;24692;45.642;13.806;2023-09-19T15:41:39;4.38;;;2.08;;
36443;SDS011;24692;45.642;13.806;2023-09-19T15:44:12;3.50;;;1.95;;
36443;SDS011;24692;45.642;13.806;2023-09-19T15:46:40;4.18;;;2.10;;
36443;SDS011;24692;45.642;13.806;2023-09-19T15:49:06;6.88;;;2.30;;
36443;SDS011;24692;45.642;13.806;2023-09-19T15:51:32;5.30;;;2.25;;
36443;SDS011;24692;45.642;13.806;2023-09-19T15:53:58;4.93;;;1.80;;
36443;SDS011;24692;45.642;13.806;2023-09-19T15:56:28;6.30;;;1.95;;
36443;SDS011;24692;45.642;13.806;2023-09-19T15:58:54;6.10;;;2.25;;